< < Back
Terminal Aerodrome Forecast


Current Version              Previous Versions:   1  2  3  4  5  6  7  8  9  

Terminal Aerodrome Forecast

838
FTUS44 KBMX 200500
TAFTCL
TAF
KTCL 200522Z 2006/2106 00000KT P6SM SKC=



Latest METAR

056
SAUS70 KWBC 210200 RRN
MTRTCL
METAR KTCL 210153Z AUTO 00000KT 10SM CLR 14/12 A3004 RMK AO2 SLP170
T01440117


USA.gov is the U.S. government's official web portal to all federal, state and local government web resources and services.